ELNBOWERS FIELD
METARs for airports near ELN, sorted by distance:
N 0 nm 1763' KELN 042253Z 19004KT 10SM CLR 32/03 A2998
NE 25 nm 1248' KEAT 042255Z 11008KT 10SM CLR 32/07 A2994
S 28 nm 1098' KYKM 042253Z 10005KT 10SM CLR 32/09 A2995
NE 44 nm 1276' KEPH 042253Z 17007KT 10SM CLR 32/06 A2997
E 50 nm 1188' KMWH 042252Z VRB05KT 10SM CLR 33/07 A2997
SE 66 nm 394' KRLD 042255Z 12003KT 10SM CLR 35/06 A2992
W 72 nm 537' KPLU 042255Z VRB03KT 10SM CLR 28/13 A3004
W 74 nm 32' KRNT 042253Z 33010KT 8SM CLR 27/14 A3002
SE 74 nm 410' KPSC 042253Z 00000KT 10SM CLR 34/08 A2992
W 76 nm 432' KSEA 042253Z 34010KT 10SM FEW050 28/13 A3004
NW 78 nm 21' KBFI 042253Z 33008G15KT 280V350 10SM CLR 27/12 A3002
W 79 nm 322' KTCM 042258Z 03010KT 10SM CLR 28/13 A3003
W 83 nm 301' KGRF 042158Z 33006KT 10SM CLR 28/18 A3004
W 84 nm 294' KTIW 042253Z 03007G14KT 340V080 10SM FEW030 26/13 A3003
NW 88 nm 607' KPAE 042253Z 35005KT 10SM CLR 25/16 A3006
S 89 nm 246' KDLS 042253Z 32009KT 10SM CLR 35/07 A2989
SE 89 nm 644' KHRI 042253Z VRB06KT 10SM CLR 35/07 A2992
NW 94 nm 141' KAWO 042256Z 30009KT 10SM 27/17 A3003
NE 95 nm 1304' KOMK 042253Z VRB06KT 10SM CLR 34/06 A2995
W 95 nm 444' KPWT 042256Z 05006KT 10SM CLR 27/16 A3004
W 97 nm 207' KOLM 042254Z VRB04KT 10SM FEW055 28/13 A3003
TAFs for airports near ELN, sorted by distance:
NE 25 nm 1248' KEAT TAF KEAT 041720Z 0418/0518 34008KT P6SM SKC
  FM041900 14004KT P6SM SKC
  FM050600 33007KT P6SM SKC
S 28 nm 1098' KYKM TAF KYKM 041732Z 0418/0518 VRB04KT P6SM SKC
  FM050200 32006KT P6SM SKC
  FM051700 VRB04KT P6SM SKC
E 50 nm 1188' KMWH TAF KMWH 041720Z 0418/0518 18006KT P6SM SKC
  FM050700 01005KT P6SM SKC
SE 74 nm 410' KPSC TAF KPSC 041732Z 0418/0518 VRB04KT P6SM SKC
W 76 nm 432' KSEA KSEA 042101Z 0421/0524 35008KT P6SM FEW040
  FM051200 VRB04KT P6SM SCT015
  FM051700 23004KT P6SM BKN250
NW 78 nm 21' KBFI KBFI 041729Z 0418/0518 VRB04KT P6SM SCT015
  FM041900 34008KT P6SM SKC
  FM051200 VRB04KT P6SM SCT015
W 79 nm 322' KTCM TAF KTCM 042100Z 0421/0603 35012KT 9999 SKC QNH3010INS
  BECMG 0506/0507 VRB06KT 9999 FEW100 SCT150 QNH3003INS
  BECMG 0520/0521 25012KT 9999 SKC QNH2999INS TX28/0521Z TN15/0512Z
W 83 nm 301' KGRF TAF KGRF 042100Z 0421/0603 35006KT 9999 SKC QNH3010INS
  BECMG 0512/0513 27006KT 9999 SCT020 BKN040 QNH3003INS
  BECMG 0600/0601 25011KT 9999 SKC QNH2999INS TX26/0521Z TN17/0512Z
NW 88 nm 607' KPAE KPAE 041729Z 0418/0518 35006KT P6SM OVC010
  FM042000 34005KT P6SM SKC
  FM051300 23004KT P6SM OVC015
S 89 nm 246' KDLS TAF KDLS 041732Z 0418/0518 31011G19KT P6SM SKC
  FM050600 32009KT P6SM SKC
W 95 nm 444' KPWT TAF KPWT 041729Z 0418/0518 04006KT P6SM SKC
  FM051300 20003KT P6SM OVC015
W 97 nm 207' KOLM KOLM 041729Z 0418/0518 01007KT P6SM FEW020
  FM050400 VRB03KT P6SM SKC
  FM051100 20004KT P6SM BKN004

Shortcut to this page: http://wxbay.com.

Data may contain errors.